^^

Nearby METAR Reports

 

EGNV - Tees-Side, United Kingdom
Distance from station: SW 7mi, 11km
Updated: 24/09/2017 21:50
Mostly cloudy
Mostly cloudy
 Wind from SE
Wind: SE 9 mph , 15 km/h
Temperature: 15°C
Dew Point: 12°C
Humidity: 82%
Barometer: 1020 hPa
Clouds: Mostly cloudy
Visibility: 4 miles , 6 km
Cloud details: Mostly cloudy 1219 m
2017/09/24 20:50 EGNV 242050Z 14008KT 6000 BKN040 15/12 Q1020
EGXE - Leeming Raf, United Kingdom
Distance from station: SSW 23mi, 37km
Updated: 24/09/2017 21:50
Haze, Mostly cloudy
Haze, Mostly cloudy
 Wind from SE
Wind: SE 7 mph , 11 km/h
Temperature: 15°C
Dew Point: 11°C
Humidity: 77%
Barometer: 1019 hPa
Summary: Haze
Clouds: Mostly cloudy
Visibility: 4 miles , 6 km
Cloud details: Mostly cloudy 1829 m
Mostly cloudy 2743 m
2017/09/24 20:50 EGXE 242050Z AUTO 13006KT 6000 HZ BKN060/// BKN090/// 15/11 Q1019
 
EGXZ - Topcliffe Raf, United Kingdom
Distance from station: S 27mi, 43km
Updated: 24/09/2017 21:50
Haze, Mostly cloudy
Haze, Mostly cloudy
 Wind from ESE
Wind: ESE 12 mph , 19 km/h
Temperature: 15°C
Dew Point: 13°C
Humidity: 88%
Barometer: 1020 hPa
Summary: Haze
Clouds: Mostly cloudy
Visibility: 3 miles , 4 km
Cloud details: Mostly cloudy 1524 m
Mostly cloudy 3962 m
2017/09/24 20:50 EGXZ 242050Z AUTO 11010KT 4200 HZ BKN050/// BKN130/// 15/13 Q1020
EGXD - Dishforth Raf, United Kingdom
Distance from station: S 32mi, 51km
Updated: 06/06/2016 10:50
NOT Current
Clear
Clear
 Wind from SSE
Wind: SSE 5 mph , 7 km/h
Temperature: 18°C
Dew Point: 11°C
Humidity: 64%
Barometer: 1023 hPa
Clouds: Clear
Visibility: 6 miles , 10 km
2016/06/06 09:50 EGXD 060950Z AUTO 16004KT 9999 // NCD 18/11 Q1023
 
EGNT - Newcastle, United Kingdom
Distance from station: NNW 34mi, 54km
Updated: 24/09/2017 21:50
Mostly cloudy
Mostly cloudy
 Wind from SE
Wind: SE 5 mph , 7 km/h
Temperature: 14°C
Dew Point: 12°C
Humidity: 88%
Barometer: 1019 hPa
Clouds: Mostly cloudy
Visibility: 4 miles , 7 km
Cloud details: Mostly cloudy 1494 m
2017/09/24 20:50 EGNT 242050Z 13004KT 100V180 7000 BKN049 14/12 Q1019
EGXU - Linton-On-Ouse R, United Kingdom
Distance from station: S 37mi, 60km
Updated: 24/09/2017 21:50
Mostly cloudy
Mostly cloudy
 Wind from E
Wind: E 7 mph , 11 km/h
Temperature: 15°C
Dew Point: 13°C
Humidity: 88%
Barometer: 1020 hPa
Clouds: Mostly cloudy
Visibility: 2 miles , 4 km
Cloud details: Mostly cloudy 1524 m
Mostly cloudy 4572 m
2017/09/24 20:50 EGXU 242050Z AUTO 10006KT 4000 // BKN050/// BKN150/// 15/13 Q1020
 
EGNM - Leeds And Bradfo, United Kingdom
Distance from station: SSW 52mi, 83km
Updated: 24/09/2017 21:50
Light rain, Partly cloudy
Light rain, Partly cloudy
 Wind from E
Wind: E 9 mph , 15 km/h
Temperature: 14°C
Dew Point: 12°C
Humidity: 88%
Barometer: 1020 hPa
Summary: Light rain
Clouds: Partly cloudy
Visibility: 6 miles , 9 km
Cloud details: Partly cloudy 914 m
2017/09/24 20:50 EGNM 242050Z 10008KT 9000 -RA SCT030 14/12 Q1020
EGXG - Church Fenton Ra, United Kingdom
Distance from station: S 52mi, 84km
Updated: 19/12/2013 08:50
NOT Current
Clear
Clear
 Wind from SW
Wind: SW 16 mph , 26 km/h
Temperature: 4°C
Wind Chill: -1°C
Dew Point: -1°C
Humidity: 70%
Barometer: 996 hPa
Clouds: Clear
Visibility: 6 miles , 10 km
2013/12/19 08:50 EGXG 190850Z AUTO 23014KT 9999 NCD 04/M01 Q0996
 
EGOM - Spadeadam, United Kingdom
Distance from station: WNW 58mi, 94km
Updated: 24/09/2017 21:50
Rain, Mostly cloudy
Rain, Mostly cloudy
 Wind from E
Wind: E 5 mph , 7 km/h
Temperature: 13°C
Dew Point: 12°C
Humidity: 94%
Barometer: 1019 hPa
Summary: Rain
Clouds: Mostly cloudy
Visibility: 2 miles , 3 km
Cloud details: Few Clouds 914 m
Mostly cloudy 1067 m
2017/09/24 20:50 EGOM 242050Z AUTO 08004KT 3200 RA FEW030/// BKN035/// 13/12 Q1019
EGNC - Carlisle, United Kingdom
Distance from station: WNW 65mi, 105km
Updated: 24/09/2017 17:50
NOT Current
Partly cloudy
Partly cloudy
 Wind from varies
Wind: varies 3 mph , 6 km/h
Temperature: 17°C
Dew Point: 13°C
Humidity: 77%
Barometer: 1017 hPa
Clouds: Partly cloudy
Visibility: 6 miles , 10 km
Cloud details: Partly cloudy 975 m
2017/09/24 16:50 EGNC 241650Z VRB03KT 9999 SCT032 17/13 Q1017
 
EGCN - Doncaster Sheffi, United Kingdom
Distance from station: S 77mi, 124km
Updated: 24/09/2017 21:50
Clear
Clear
 Wind from SE
Wind: SE 6 mph , 9 km/h
Temperature: 16°C
Dew Point: 12°C
Humidity: 77%
Barometer: 1020 hPa
Summary: Clear
Visibility: greater than 7 miles , 10 km
2017/09/24 20:50 EGCN 242050Z 13005KT CAVOK 16/12 Q1020
EGNJ - Humberside, United Kingdom
Distance from station: SSE 80mi, 129km
Updated: 24/09/2017 21:50
Mist, Clear
Mist, Clear
 Wind from E
Wind: E 8 mph , 13 km/h
Temperature: 14°C
Dew Point: 14°C
Humidity: 100%
Barometer: 1020 hPa
Summary: Mist
Clouds: Clear
Visibility: 1 mile , 2 km
2017/09/24 20:50 EGNJ 242050Z AUTO 10007KT 2200 BR NCD 14/14 Q1020
 
EGNH - Blackpool Airpor, United Kingdom
Distance from station: SW 90mi, 145km
Updated: 24/09/2017 20:50
NOT Current
Rain drizzle, Mostly cloudy
Rain drizzle, Mostly cloudy
 Wind from NE
Wind: NE 5 mph , 7 km/h
Temperature: 16°C
Dew Point: 14°C
Humidity: 88%
Barometer: 1018 hPa
Summary: Rain Drizzle
Clouds: Mostly cloudy
Visibility: 2 miles , 4 km
Cloud details: Mostly cloudy 152 m
2017/09/24 19:50 EGNH 241950Z 04004KT 4000 RADZ BKN005 16/14 Q1018
EGXP - Scampton Raf, United Kingdom
Distance from station: SSE 94mi, 151km
Updated: 24/09/2017 21:50
Overcast
Overcast
 Wind from ESE
Wind: ESE 9 mph , 15 km/h
Temperature: 15°C
Dew Point: 11°C
Humidity: 77%
Barometer: 1019 hPa
Clouds: Overcast
Visibility: 5 miles , 8 km
Cloud details: Few Clouds 2134 m
Overcast 3353 m
2017/09/24 20:50 EGXP 242050Z AUTO 12008KT 8000 // FEW070/// OVC110/// 15/11 Q1019
 
EGCC - Manchester Intl, United Kingdom
Distance from station: SSW 94mi, 152km
Updated: 24/09/2017 21:50
Overcast
Overcast
 Wind from SE
Wind: SE 5 mph , 7 km/h
Temperature: 17°C
Dew Point: 13°C
Humidity: 77%
Barometer: 1018 hPa
Clouds: Overcast
Visibility: 6 miles , 10 km
Cloud details: Mostly cloudy 701 m
Overcast 1341 m
2017/09/24 20:50 EGCC 242050Z AUTO 13004KT 080V240 9999 BKN023 OVC044 17/13 Q1018
EGOW - Woodvale Raf, United Kingdom
Distance from station: SW 100mi, 160km
Updated: 24/09/2017 16:50
NOT Current
Partly cloudy
Partly cloudy
 Wind from S
Wind: S 9 mph , 15 km/h
Temperature: 18°C
Dew Point: 13°C
Humidity: 73%
Barometer: 1017 hPa
Clouds: Partly cloudy
Visibility: 6 miles , 10 km
Cloud details: Partly cloudy 1219 m
2017/09/24 15:50 EGOW 241550Z 19008KT 9999 SCT040 18/13 Q1017 BLU